sensor_id;sensor_type;location;lat;lon;timestamp;temperature;humidity
4615;DHT22;2320;51.362;6.946;2023-06-10T00:00:37;19.10;99.90
4615;DHT22;2320;51.362;6.946;2023-06-10T00:03:02;19.10;99.90
4615;DHT22;2320;51.362;6.946;2023-06-10T00:05:28;19.00;99.90
4615;DHT22;2320;51.362;6.946;2023-06-10T00:07:56;19.00;99.90
4615;DHT22;2320;51.362;6.946;2023-06-10T00:10:22;19.00;99.90
4615;DHT22;2320;51.362;6.946;2023-06-10T00:12:48;18.90;99.90
4615;DHT22;2320;51.362;6.946;2023-06-10T00:15:13;18.90;99.90
4615;DHT22;2320;51.362;6.946;2023-06-10T00:17:39;18.80;99.90
4615;DHT22;2320;51.362;6.946;2023-06-10T00:20:08;18.80;99.90
4615;DHT22;2320;51.362;6.946;2023-06-10T00:22:36;18.80;99.90
4615;DHT22;2320;51.362;6.946;2023-06-10T00:25:01;18.80;99.90
4615;DHT22;2320;51.362;6.946;2023-06-10T00:27:29;18.70;99.90
4615;DHT22;2320;51.362;6.946;2023-06-10T00:30:02;18.70;99.90
4615;DHT22;2320;51.362;6.946;2023-06-10T00:32:29;18.60;99.90
4615;DHT22;2320;51.362;6.946;2023-06-10T00:34:55;18.60;99.90
4615;DHT22;2320;51.362;6.946;2023-06-10T00:37:21;18.60;99.90
4615;DHT22;2320;51.362;6.946;2023-06-10T00:39:46;18.60;99.90
4615;DHT22;2320;51.362;6.946;2023-06-10T00:42:11;18.60;99.90
4615;DHT22;2320;51.362;6.946;2023-06-10T00:44:37;18.60;99.90
4615;DHT22;2320;51.362;6.946;2023-06-10T00:47:03;18.50;99.90
4615;DHT22;2320;51.362;6.946;2023-06-10T00:49:28;18.50;99.90
4615;DHT22;2320;51.362;6.946;2023-06-10T00:51:54;18.40;99.90
4615;DHT22;2320;51.362;6.946;2023-06-10T00:54:19;18.40;99.90
4615;DHT22;2320;51.362;6.946;2023-06-10T00:56:45;18.30;99.90
4615;DHT22;2320;51.362;6.946;2023-06-10T00:59:12;18.30;99.90
4615;DHT22;2320;51.362;6.946;2023-06-10T01:01:39;18.20;99.90
4615;DHT22;2320;51.362;6.946;2023-06-10T01:04:05;18.20;99.90
4615;DHT22;2320;51.362;6.946;2023-06-10T01:06:36;18.20;99.90
4615;DHT22;2320;51.362;6.946;2023-06-10T01:11:46;18.00;99.90
4615;DHT22;2320;51.362;6.946;2023-06-10T01:14:12;17.90;99.90
4615;DHT22;2320;51.362;6.946;2023-06-10T01:16:39;17.90;99.90
4615;DHT22;2320;51.362;6.946;2023-06-10T01:19:06;17.90;99.90
4615;DHT22;2320;51.362;6.946;2023-06-10T01:21:33;17.90;99.90
4615;DHT22;2320;51.362;6.946;2023-06-10T01:23:58;17.90;99.90
4615;DHT22;2320;51.362;6.946;2023-06-10T01:26:30;17.90;99.90
4615;DHT22;2320;51.362;6.946;2023-06-10T01:28:58;17.80;99.90
4615;DHT22;2320;51.362;6.946;2023-06-10T01:31:41;17.90;99.90
4615;DHT22;2320;51.362;6.946;2023-06-10T01:34:09;17.80;99.90
4615;DHT22;2320;51.362;6.946;2023-06-10T01:36:35;17.90;99.90
4615;DHT22;2320;51.362;6.946;2023-06-10T01:39:02;17.80;99.90
4615;DHT22;2320;51.362;6.946;2023-06-10T01:41:29;17.80;99.90
4615;DHT22;2320;51.362;6.946;2023-06-10T01:43:56;17.70;99.90
4615;DHT22;2320;51.362;6.946;2023-06-10T01:46:21;17.80;99.90
4615;DHT22;2320;51.362;6.946;2023-06-10T01:48:47;17.80;99.90
4615;DHT22;2320;51.362;6.946;2023-06-10T01:51:12;17.80;99.90
4615;DHT22;2320;51.362;6.946;2023-06-10T01:53:38;17.70;99.90
4615;DHT22;2320;51.362;6.946;2023-06-10T01:56:04;17.70;99.90
4615;DHT22;2320;51.362;6.946;2023-06-10T01:58:29;17.60;99.90
4615;DHT22;2320;51.362;6.946;2023-06-10T02:00:55;17.60;99.90
4615;DHT22;2320;51.362;6.946;2023-06-10T02:03:20;17.40;99.90
4615;DHT22;2320;51.362;6.946;2023-06-10T02:05:46;17.40;99.90
4615;DHT22;2320;51.362;6.946;2023-06-10T02:08:11;17.40;99.90
4615;DHT22;2320;51.362;6.946;2023-06-10T02:10:37;17.40;99.90
4615;DHT22;2320;51.362;6.946;2023-06-10T02:13:02;17.20;99.90
4615;DHT22;2320;51.362;6.946;2023-06-10T02:15:28;17.20;99.90
4615;DHT22;2320;51.362;6.946;2023-06-10T02:17:53;17.20;99.90
4615;DHT22;2320;51.362;6.946;2023-06-10T02:20:19;17.10;99.90
4615;DHT22;2320;51.362;6.946;2023-06-10T02:22:46;17.10;99.90
4615;DHT22;2320;51.362;6.946;2023-06-10T02:25:11;17.00;99.90
4615;DHT22;2320;51.362;6.946;2023-06-10T02:27:37;16.90;99.90
4615;DHT22;2320;51.362;6.946;2023-06-10T02:30:02;17.00;99.90
4615;DHT22;2320;51.362;6.946;2023-06-10T02:32:28;17.10;99.90
4615;DHT22;2320;51.362;6.946;2023-06-10T02:34:54;17.10;99.90
4615;DHT22;2320;51.362;6.946;2023-06-10T02:37:19;17.10;99.90
4615;DHT22;2320;51.362;6.946;2023-06-10T02:39:45;17.00;99.90
4615;DHT22;2320;51.362;6.946;2023-06-10T02:42:11;17.00;99.90
4615;DHT22;2320;51.362;6.946;2023-06-10T02:44:37;16.90;99.90
4615;DHT22;2320;51.362;6.946;2023-06-10T02:47:02;17.00;99.90
4615;DHT22;2320;51.362;6.946;2023-06-10T02:49:28;17.00;99.90
4615;DHT22;2320;51.362;6.946;2023-06-10T02:51:53;16.90;99.90
4615;DHT22;2320;51.362;6.946;2023-06-10T02:54:19;17.10;99.90
4615;DHT22;2320;51.362;6.946;2023-06-10T02:56:45;17.10;99.90
4615;DHT22;2320;51.362;6.946;2023-06-10T02:59:11;16.90;99.90
4615;DHT22;2320;51.362;6.946;2023-06-10T03:01:36;16.80;99.90
4615;DHT22;2320;51.362;6.946;2023-06-10T03:04:03;16.70;99.90
4615;DHT22;2320;51.362;6.946;2023-06-10T03:06:29;16.70;99.90
4615;DHT22;2320;51.362;6.946;2023-06-10T03:08:55;16.70;99.90
4615;DHT22;2320;51.362;6.946;2023-06-10T03:11:20;16.70;99.90
4615;DHT22;2320;51.362;6.946;2023-06-10T03:13:46;16.50;99.90
4615;DHT22;2320;51.362;6.946;2023-06-10T03:16:11;16.80;99.90
4615;DHT22;2320;51.362;6.946;2023-06-10T03:18:37;16.80;99.90
4615;DHT22;2320;51.362;6.946;2023-06-10T03:21:03;16.70;99.90
4615;DHT22;2320;51.362;6.946;2023-06-10T03:23:28;16.70;99.90
4615;DHT22;2320;51.362;6.946;2023-06-10T03:25:54;16.70;99.90
4615;DHT22;2320;51.362;6.946;2023-06-10T03:28:20;16.60;99.90
4615;DHT22;2320;51.362;6.946;2023-06-10T03:30:46;16.60;99.90
4615;DHT22;2320;51.362;6.946;2023-06-10T03:33:12;16.60;99.90
4615;DHT22;2320;51.362;6.946;2023-06-10T03:35:38;16.70;99.90
4615;DHT22;2320;51.362;6.946;2023-06-10T03:38:03;16.60;99.90
4615;DHT22;2320;51.362;6.946;2023-06-10T03:40:29;16.60;99.90
4615;DHT22;2320;51.362;6.946;2023-06-10T03:42:56;16.70;99.90
4615;DHT22;2320;51.362;6.946;2023-06-10T03:45:22;16.80;99.90
4615;DHT22;2320;51.362;6.946;2023-06-10T03:47:47;16.80;99.90
4615;DHT22;2320;51.362;6.946;2023-06-10T03:50:13;16.80;99.90
4615;DHT22;2320;51.362;6.946;2023-06-10T03:52:38;16.90;99.90
4615;DHT22;2320;51.362;6.946;2023-06-10T03:55:05;16.90;99.90
4615;DHT22;2320;51.362;6.946;2023-06-10T03:57:31;16.90;99.90
4615;DHT22;2320;51.362;6.946;2023-06-10T03:59:57;17.10;99.90
4615;DHT22;2320;51.362;6.946;2023-06-10T04:02:23;17.10;99.90
4615;DHT22;2320;51.362;6.946;2023-06-10T04:04:48;17.10;99.90
4615;DHT22;2320;51.362;6.946;2023-06-10T04:07:14;17.10;99.90
4615;DHT22;2320;51.362;6.946;2023-06-10T04:09:40;17.00;99.90
4615;DHT22;2320;51.362;6.946;2023-06-10T04:12:05;17.20;99.90
4615;DHT22;2320;51.362;6.946;2023-06-10T04:14:35;17.30;99.90
4615;DHT22;2320;51.362;6.946;2023-06-10T04:17:03;17.30;99.90
4615;DHT22;2320;51.362;6.946;2023-06-10T04:19:28;17.30;99.90
4615;DHT22;2320;51.362;6.946;2023-06-10T04:21:54;17.30;99.90
4615;DHT22;2320;51.362;6.946;2023-06-10T04:24:19;17.40;99.90
4615;DHT22;2320;51.362;6.946;2023-06-10T04:26:45;17.50;99.90
4615;DHT22;2320;51.362;6.946;2023-06-10T04:29:11;17.50;99.90
4615;DHT22;2320;51.362;6.946;2023-06-10T04:31:36;17.70;99.90
4615;DHT22;2320;51.362;6.946;2023-06-10T04:34:02;17.70;99.90
4615;DHT22;2320;51.362;6.946;2023-06-10T04:36:27;17.70;99.90
4615;DHT22;2320;51.362;6.946;2023-06-10T04:38:54;17.80;99.90
4615;DHT22;2320;51.362;6.946;2023-06-10T04:41:20;17.90;99.90
4615;DHT22;2320;51.362;6.946;2023-06-10T04:43:45;18.00;99.90
4615;DHT22;2320;51.362;6.946;2023-06-10T04:46:11;18.20;99.90
4615;DHT22;2320;51.362;6.946;2023-06-10T04:48:38;18.20;99.90
4615;DHT22;2320;51.362;6.946;2023-06-10T04:51:04;18.30;99.90
4615;DHT22;2320;51.362;6.946;2023-06-10T04:53:30;18.60;99.90
4615;DHT22;2320;51.362;6.946;2023-06-10T04:55:57;19.30;99.90
4615;DHT22;2320;51.362;6.946;2023-06-10T04:58:23;20.20;99.90
4615;DHT22;2320;51.362;6.946;2023-06-10T05:00:48;21.00;99.90
4615;DHT22;2320;51.362;6.946;2023-06-10T05:03:14;21.50;99.90
4615;DHT22;2320;51.362;6.946;2023-06-10T05:05:39;22.40;99.90
4615;DHT22;2320;51.362;6.946;2023-06-10T05:08:05;22.90;99.90
4615;DHT22;2320;51.362;6.946;2023-06-10T05:10:30;23.40;99.90
4615;DHT22;2320;51.362;6.946;2023-06-10T05:12:57;23.70;99.90
4615;DHT22;2320;51.362;6.946;2023-06-10T05:15:23;23.40;99.90
4615;DHT22;2320;51.362;6.946;2023-06-10T05:17:49;23.70;99.90
4615;DHT22;2320;51.362;6.946;2023-06-10T05:20:15;23.80;99.90
4615;DHT22;2320;51.362;6.946;2023-06-10T05:22:41;24.00;99.90
4615;DHT22;2320;51.362;6.946;2023-06-10T05:25:06;24.60;99.90
4615;DHT22;2320;51.362;6.946;2023-06-10T05:27:32;24.60;99.90
4615;DHT22;2320;51.362;6.946;2023-06-10T05:29:57;24.80;99.90
4615;DHT22;2320;51.362;6.946;2023-06-10T05:32:23;24.60;99.90
4615;DHT22;2320;51.362;6.946;2023-06-10T05:34:49;25.30;99.90
4615;DHT22;2320;51.362;6.946;2023-06-10T05:37:14;25.00;99.90
4615;DHT22;2320;51.362;6.946;2023-06-10T05:39:40;25.50;99.90
4615;DHT22;2320;51.362;6.946;2023-06-10T05:42:06;25.30;99.90
4615;DHT22;2320;51.362;6.946;2023-06-10T05:44:32;25.70;99.90
4615;DHT22;2320;51.362;6.946;2023-06-10T05:46:57;25.60;99.90
4615;DHT22;2320;51.362;6.946;2023-06-10T05:49:23;25.50;99.90
4615;DHT22;2320;51.362;6.946;2023-06-10T05:51:48;25.80;99.90
4615;DHT22;2320;51.362;6.946;2023-06-10T05:54:14;25.80;99.90
4615;DHT22;2320;51.362;6.946;2023-06-10T05:56:39;25.90;99.90
4615;DHT22;2320;51.362;6.946;2023-06-10T05:59:05;26.50;99.90
4615;DHT22;2320;51.362;6.946;2023-06-10T06:01:30;27.10;99.90
4615;DHT22;2320;51.362;6.946;2023-06-10T06:03:56;27.70;99.90
4615;DHT22;2320;51.362;6.946;2023-06-10T06:06:21;28.10;99.90
4615;DHT22;2320;51.362;6.946;2023-06-10T06:08:47;27.90;99.90
4615;DHT22;2320;51.362;6.946;2023-06-10T06:11:12;28.10;99.90
4615;DHT22;2320;51.362;6.946;2023-06-10T06:13:38;29.10;99.90
4615;DHT22;2320;51.362;6.946;2023-06-10T06:16:04;28.40;99.90
4615;DHT22;2320;51.362;6.946;2023-06-10T06:18:29;28.50;99.90
4615;DHT22;2320;51.362;6.946;2023-06-10T06:20:55;29.00;99.90
4615;DHT22;2320;51.362;6.946;2023-06-10T06:23:20;29.20;99.90
4615;DHT22;2320;51.362;6.946;2023-06-10T06:25:46;28.90;99.90
4615;DHT22;2320;51.362;6.946;2023-06-10T06:28:11;29.80;99.90
4615;DHT22;2320;51.362;6.946;2023-06-10T06:30:37;29.90;99.90
4615;DHT22;2320;51.362;6.946;2023-06-10T06:33:02;28.90;99.90
4615;DHT22;2320;51.362;6.946;2023-06-10T06:35:30;29.60;99.90
4615;DHT22;2320;51.362;6.946;2023-06-10T06:37:56;27.70;99.90
4615;DHT22;2320;51.362;6.946;2023-06-10T06:40:22;28.20;99.90
4615;DHT22;2320;51.362;6.946;2023-06-10T06:42:47;27.70;99.90
4615;DHT22;2320;51.362;6.946;2023-06-10T06:45:13;27.70;99.90
4615;DHT22;2320;51.362;6.946;2023-06-10T06:47:38;28.00;99.90
4615;DHT22;2320;51.362;6.946;2023-06-10T06:50:04;27.80;99.90
4615;DHT22;2320;51.362;6.946;2023-06-10T06:52:29;27.90;99.90
4615;DHT22;2320;51.362;6.946;2023-06-10T06:54:55;28.80;99.90
4615;DHT22;2320;51.362;6.946;2023-06-10T06:57:20;29.10;99.90
4615;DHT22;2320;51.362;6.946;2023-06-10T06:59:46;28.00;99.90
4615;DHT22;2320;51.362;6.946;2023-06-10T07:02:11;28.60;99.90
4615;DHT22;2320;51.362;6.946;2023-06-10T07:04:37;29.10;99.90
4615;DHT22;2320;51.362;6.946;2023-06-10T07:07:04;30.00;99.90
4615;DHT22;2320;51.362;6.946;2023-06-10T07:09:30;29.90;99.90
4615;DHT22;2320;51.362;6.946;2023-06-10T07:11:55;30.00;99.90
4615;DHT22;2320;51.362;6.946;2023-06-10T07:14:21;30.00;99.80
4615;DHT22;2320;51.362;6.946;2023-06-10T07:16:46;30.90;98.40
4615;DHT22;2320;51.362;6.946;2023-06-10T07:19:13;31.90;95.90
4615;DHT22;2320;51.362;6.946;2023-06-10T07:21:39;32.70;94.00
4615;DHT22;2320;51.362;6.946;2023-06-10T07:24:05;32.80;92.90
4615;DHT22;2320;51.362;6.946;2023-06-10T07:26:30;33.40;90.50
4615;DHT22;2320;51.362;6.946;2023-06-10T07:28:56;33.20;87.20
4615;DHT22;2320;51.362;6.946;2023-06-10T07:31:22;33.10;87.20
4615;DHT22;2320;51.362;6.946;2023-06-10T07:33:48;33.50;84.80
4615;DHT22;2320;51.362;6.946;2023-06-10T07:36:13;33.60;82.80
4615;DHT22;2320;51.362;6.946;2023-06-10T07:38:39;33.60;81.10
4615;DHT22;2320;51.362;6.946;2023-06-10T07:41:07;33.50;79.20
4615;DHT22;2320;51.362;6.946;2023-06-10T07:43:33;33.40;79.10
4615;DHT22;2320;51.362;6.946;2023-06-10T07:45:58;33.40;79.50
4615;DHT22;2320;51.362;6.946;2023-06-10T07:48:25;33.90;78.60
4615;DHT22;2320;51.362;6.946;2023-06-10T07:50:51;34.50;76.00
4615;DHT22;2320;51.362;6.946;2023-06-10T07:53:17;34.90;74.80
4615;DHT22;2320;51.362;6.946;2023-06-10T07:55:42;35.70;72.70
4615;DHT22;2320;51.362;6.946;2023-06-10T07:58:07;36.00;70.40
4615;DHT22;2320;51.362;6.946;2023-06-10T08:00:33;36.00;68.60
4615;DHT22;2320;51.362;6.946;2023-06-10T08:02:59;36.10;69.90
4615;DHT22;2320;51.362;6.946;2023-06-10T08:05:24;37.40;70.10
4615;DHT22;2320;51.362;6.946;2023-06-10T08:07:50;37.90;64.30
4615;DHT22;2320;51.362;6.946;2023-06-10T08:10:15;37.00;62.50
4615;DHT22;2320;51.362;6.946;2023-06-10T08:12:41;36.70;61.90
4615;DHT22;2320;51.362;6.946;2023-06-10T08:15:06;36.70;61.10
4615;DHT22;2320;51.362;6.946;2023-06-10T08:17:32;36.90;61.40
4615;DHT22;2320;51.362;6.946;2023-06-10T08:19:57;36.90;59.90
4615;DHT22;2320;51.362;6.946;2023-06-10T08:22:23;37.00;60.00
4615;DHT22;2320;51.362;6.946;2023-06-10T08:24:49;37.50;58.60
4615;DHT22;2320;51.362;6.946;2023-06-10T08:27:14;37.30;58.80
4615;DHT22;2320;51.362;6.946;2023-06-10T08:29:40;38.40;59.50
4615;DHT22;2320;51.362;6.946;2023-06-10T08:32:06;38.70;57.90
4615;DHT22;2320;51.362;6.946;2023-06-10T08:34:35;38.70;57.00
4615;DHT22;2320;51.362;6.946;2023-06-10T08:37:01;38.30;56.60
4615;DHT22;2320;51.362;6.946;2023-06-10T08:39:27;37.80;56.90
4615;DHT22;2320;51.362;6.946;2023-06-10T08:42:07;37.40;57.80
4615;DHT22;2320;51.362;6.946;2023-06-10T08:44:35;37.20;57.80
4615;DHT22;2320;51.362;6.946;2023-06-10T08:47:04;37.80;59.90
4615;DHT22;2320;51.362;6.946;2023-06-10T08:49:31;38.30;56.70
4615;DHT22;2320;51.362;6.946;2023-06-10T08:51:58;38.10;56.90
4615;DHT22;2320;51.362;6.946;2023-06-10T08:54:25;38.30;56.40
4615;DHT22;2320;51.362;6.946;2023-06-10T08:56:52;38.80;55.30
4615;DHT22;2320;51.362;6.946;2023-06-10T08:59:19;37.70;55.30
4615;DHT22;2320;51.362;6.946;2023-06-10T09:01:46;37.20;55.90
4615;DHT22;2320;51.362;6.946;2023-06-10T09:04:12;37.00;56.70
4615;DHT22;2320;51.362;6.946;2023-06-10T09:06:37;37.20;56.10
4615;DHT22;2320;51.362;6.946;2023-06-10T09:09:05;37.60;56.50
4615;DHT22;2320;51.362;6.946;2023-06-10T09:11:31;37.80;54.50
4615;DHT22;2320;51.362;6.946;2023-06-10T09:13:56;37.20;55.20
4615;DHT22;2320;51.362;6.946;2023-06-10T09:16:22;36.40;55.70
4615;DHT22;2320;51.362;6.946;2023-06-10T09:18:48;36.10;56.30
4615;DHT22;2320;51.362;6.946;2023-06-10T09:21:14;36.00;56.00
4615;DHT22;2320;51.362;6.946;2023-06-10T09:23:39;35.80;56.70
4615;DHT22;2320;51.362;6.946;2023-06-10T09:26:08;35.40;58.10
4615;DHT22;2320;51.362;6.946;2023-06-10T09:28:33;36.30;57.80
4615;DHT22;2320;51.362;6.946;2023-06-10T09:31:05;36.60;56.50
4615;DHT22;2320;51.362;6.946;2023-06-10T09:33:32;36.50;56.30
4615;DHT22;2320;51.362;6.946;2023-06-10T09:35:59;36.60;56.60
4615;DHT22;2320;51.362;6.946;2023-06-10T09:38:29;37.00;56.50
4615;DHT22;2320;51.362;6.946;2023-06-10T09:40:55;37.30;55.30
4615;DHT22;2320;51.362;6.946;2023-06-10T09:43:20;37.60;55.20
4615;DHT22;2320;51.362;6.946;2023-06-10T09:45:49;38.50;53.90
4615;DHT22;2320;51.362;6.946;2023-06-10T09:48:15;37.70;53.60
4615;DHT22;2320;51.362;6.946;2023-06-10T09:50:43;38.10;55.10
4615;DHT22;2320;51.362;6.946;2023-06-10T09:53:09;38.10;53.80
4615;DHT22;2320;51.362;6.946;2023-06-10T09:55:38;37.70;53.50
4615;DHT22;2320;51.362;6.946;2023-06-10T09:58:04;37.50;54.50
4615;DHT22;2320;51.362;6.946;2023-06-10T10:00:32;38.70;54.90
4615;DHT22;2320;51.362;6.946;2023-06-10T10:02:58;38.90;53.20
4615;DHT22;2320;51.362;6.946;2023-06-10T10:05:23;38.20;53.40
4615;DHT22;2320;51.362;6.946;2023-06-10T10:07:49;38.80;53.00
4615;DHT22;2320;51.362;6.946;2023-06-10T10:10:16;37.90;53.30
4615;DHT22;2320;51.362;6.946;2023-06-10T10:12:42;37.70;55.60
4615;DHT22;2320;51.362;6.946;2023-06-10T10:15:09;37.90;54.10
4615;DHT22;2320;51.362;6.946;2023-06-10T10:17:44;38.40;52.70
4615;DHT22;2320;51.362;6.946;2023-06-10T10:20:12;38.10;52.70
4615;DHT22;2320;51.362;6.946;2023-06-10T10:22:38;37.70;53.70
4615;DHT22;2320;51.362;6.946;2023-06-10T10:25:11;37.70;53.80
4615;DHT22;2320;51.362;6.946;2023-06-10T10:28:24;36.90;53.90
4615;DHT22;2320;51.362;6.946;2023-06-10T10:30:23;37.30;54.60
4615;DHT22;2320;51.362;6.946;2023-06-10T10:33:06;37.50;54.10
4615;DHT22;2320;51.362;6.946;2023-06-10T10:35:34;37.50;54.00
4615;DHT22;2320;51.362;6.946;2023-06-10T10:38:01;38.20;54.50
4615;DHT22;2320;51.362;6.946;2023-06-10T10:40:27;38.60;53.20
4615;DHT22;2320;51.362;6.946;2023-06-10T10:42:54;37.50;54.70
4615;DHT22;2320;51.362;6.946;2023-06-10T10:45:21;37.20;55.00
4615;DHT22;2320;51.362;6.946;2023-06-10T10:47:48;37.00;55.20
4615;DHT22;2320;51.362;6.946;2023-06-10T10:50:17;37.10;54.20
4615;DHT22;2320;51.362;6.946;2023-06-10T10:52:54;37.20;54.40
4615;DHT22;2320;51.362;6.946;2023-06-10T10:55:20;37.00;53.80
4615;DHT22;2320;51.362;6.946;2023-06-10T10:57:53;37.00;54.70
4615;DHT22;2320;51.362;6.946;2023-06-10T11:00:24;37.20;53.90
4615;DHT22;2320;51.362;6.946;2023-06-10T11:02:50;36.70;54.70
4615;DHT22;2320;51.362;6.946;2023-06-10T11:05:18;37.10;55.00
4615;DHT22;2320;51.362;6.946;2023-06-10T11:07:56;36.40;53.80
4615;DHT22;2320;51.362;6.946;2023-06-10T11:10:32;35.90;53.30
4615;DHT22;2320;51.362;6.946;2023-06-10T11:12:58;36.20;53.50
4615;DHT22;2320;51.362;6.946;2023-06-10T11:15:27;35.60;54.00
4615;DHT22;2320;51.362;6.946;2023-06-10T11:28:39;37.00;52.60
4615;DHT22;2320;51.362;6.946;2023-06-10T11:31:05;36.60;52.60
4615;DHT22;2320;51.362;6.946;2023-06-10T11:33:31;36.10;51.80
4615;DHT22;2320;51.362;6.946;2023-06-10T11:35:56;35.50;52.60
4615;DHT22;2320;51.362;6.946;2023-06-10T11:38:22;35.30;53.20
4615;DHT22;2320;51.362;6.946;2023-06-10T11:40:48;34.70;53.60
4615;DHT22;2320;51.362;6.946;2023-06-10T11:43:14;35.00;53.00
4615;DHT22;2320;51.362;6.946;2023-06-10T11:45:41;34.40;53.70
4615;DHT22;2320;51.362;6.946;2023-06-10T11:48:06;34.30;53.90
4615;DHT22;2320;51.362;6.946;2023-06-10T11:50:32;34.50;53.50
4615;DHT22;2320;51.362;6.946;2023-06-10T11:52:58;34.20;52.80
4615;DHT22;2320;51.362;6.946;2023-06-10T11:55:25;34.30;53.60
4615;DHT22;2320;51.362;6.946;2023-06-10T11:57:50;33.80;53.90
4615;DHT22;2320;51.362;6.946;2023-06-10T12:00:23;33.50;55.00
4615;DHT22;2320;51.362;6.946;2023-06-10T12:02:56;33.20;55.50
4615;DHT22;2320;51.362;6.946;2023-06-10T12:05:22;32.90;56.00
4615;DHT22;2320;51.362;6.946;2023-06-10T12:07:48;32.40;55.60
4615;DHT22;2320;51.362;6.946;2023-06-10T12:10:13;31.90;56.70
4615;DHT22;2320;51.362;6.946;2023-06-10T12:12:39;31.90;57.40
4615;DHT22;2320;51.362;6.946;2023-06-10T12:15:06;31.70;55.80
4615;DHT22;2320;51.362;6.946;2023-06-10T12:19:59;31.20;57.20
4615;DHT22;2320;51.362;6.946;2023-06-10T12:22:25;31.10;57.20
4615;DHT22;2320;51.362;6.946;2023-06-10T12:24:58;30.90;57.60
4615;DHT22;2320;51.362;6.946;2023-06-10T12:27:27;31.00;58.20
4615;DHT22;2320;51.362;6.946;2023-06-10T12:29:55;31.20;57.80
4615;DHT22;2320;51.362;6.946;2023-06-10T12:32:21;31.30;57.80
4615;DHT22;2320;51.362;6.946;2023-06-10T12:35:02;31.20;57.90
4615;DHT22;2320;51.362;6.946;2023-06-10T12:37:28;31.20;57.20
4615;DHT22;2320;51.362;6.946;2023-06-10T12:39:54;31.10;58.10
4615;DHT22;2320;51.362;6.946;2023-06-10T12:42:21;31.20;57.60
4615;DHT22;2320;51.362;6.946;2023-06-10T12:44:47;31.10;58.40
4615;DHT22;2320;51.362;6.946;2023-06-10T12:47:18;31.20;58.60
4615;DHT22;2320;51.362;6.946;2023-06-10T12:49:43;31.40;58.20
4615;DHT22;2320;51.362;6.946;2023-06-10T12:52:09;31.40;58.50
4615;DHT22;2320;51.362;6.946;2023-06-10T12:54:34;31.10;59.60
4615;DHT22;2320;51.362;6.946;2023-06-10T12:57:00;31.10;59.00
4615;DHT22;2320;51.362;6.946;2023-06-10T12:59:26;31.00;59.40
4615;DHT22;2320;51.362;6.946;2023-06-10T13:01:52;31.10;60.00
4615;DHT22;2320;51.362;6.946;2023-06-10T13:04:18;31.00;59.30
4615;DHT22;2320;51.362;6.946;2023-06-10T13:06:44;31.10;60.00
4615;DHT22;2320;51.362;6.946;2023-06-10T13:09:12;31.30;58.90
4615;DHT22;2320;51.362;6.946;2023-06-10T13:11:38;31.00;59.20
4615;DHT22;2320;51.362;6.946;2023-06-10T13:14:04;30.90;60.40
4615;DHT22;2320;51.362;6.946;2023-06-10T13:16:32;31.10;59.30
4615;DHT22;2320;51.362;6.946;2023-06-10T13:18:58;31.30;60.10
4615;DHT22;2320;51.362;6.946;2023-06-10T13:21:24;31.30;59.50
4615;DHT22;2320;51.362;6.946;2023-06-10T13:23:50;31.20;59.50
4615;DHT22;2320;51.362;6.946;2023-06-10T13:26:16;31.00;60.10
4615;DHT22;2320;51.362;6.946;2023-06-10T13:28:42;31.10;59.70
4615;DHT22;2320;51.362;6.946;2023-06-10T13:31:08;31.30;59.00
4615;DHT22;2320;51.362;6.946;2023-06-10T13:33:33;31.40;59.20
4615;DHT22;2320;51.362;6.946;2023-06-10T13:35:59;31.50;59.00
4615;DHT22;2320;51.362;6.946;2023-06-10T13:38:24;31.30;58.60
4615;DHT22;2320;51.362;6.946;2023-06-10T13:40:50;31.30;59.50
4615;DHT22;2320;51.362;6.946;2023-06-10T13:43:16;31.30;59.70
4615;DHT22;2320;51.362;6.946;2023-06-10T13:45:42;31.40;59.70
4615;DHT22;2320;51.362;6.946;2023-06-10T13:48:07;31.30;59.80
4615;DHT22;2320;51.362;6.946;2023-06-10T13:50:33;31.40;59.80
4615;DHT22;2320;51.362;6.946;2023-06-10T13:52:59;31.30;59.60
4615;DHT22;2320;51.362;6.946;2023-06-10T13:55:25;30.80;60.90
4615;DHT22;2320;51.362;6.946;2023-06-10T13:57:50;30.70;61.70
4615;DHT22;2320;51.362;6.946;2023-06-10T14:00:16;30.60;58.70
4615;DHT22;2320;51.362;6.946;2023-06-10T14:02:42;30.70;59.30
4615;DHT22;2320;51.362;6.946;2023-06-10T14:05:07;30.90;59.00
4615;DHT22;2320;51.362;6.946;2023-06-10T14:07:33;30.80;59.50
4615;DHT22;2320;51.362;6.946;2023-06-10T14:09:59;30.60;59.20
4615;DHT22;2320;51.362;6.946;2023-06-10T14:12:25;30.70;60.10
4615;DHT22;2320;51.362;6.946;2023-06-10T14:14:50;30.90;60.00
4615;DHT22;2320;51.362;6.946;2023-06-10T14:17:16;31.00;58.70
4615;DHT22;2320;51.362;6.946;2023-06-10T14:19:41;31.00;59.60
4615;DHT22;2320;51.362;6.946;2023-06-10T14:22:07;31.10;59.60
4615;DHT22;2320;51.362;6.946;2023-06-10T14:24:33;31.00;59.20
4615;DHT22;2320;51.362;6.946;2023-06-10T14:27:00;30.80;60.00
4615;DHT22;2320;51.362;6.946;2023-06-10T14:29:25;30.90;59.40
4615;DHT22;2320;51.362;6.946;2023-06-10T14:31:54;30.80;60.40
4615;DHT22;2320;51.362;6.946;2023-06-10T14:34:20;30.70;60.50
4615;DHT22;2320;51.362;6.946;2023-06-10T14:36:45;30.70;59.70
4615;DHT22;2320;51.362;6.946;2023-06-10T14:39:11;30.70;60.10
4615;DHT22;2320;51.362;6.946;2023-06-10T14:41:36;30.80;59.90
4615;DHT22;2320;51.362;6.946;2023-06-10T14:44:02;30.80;60.00
4615;DHT22;2320;51.362;6.946;2023-06-10T14:46:27;30.90;60.10
4615;DHT22;2320;51.362;6.946;2023-06-10T14:48:53;30.90;59.70
4615;DHT22;2320;51.362;6.946;2023-06-10T14:51:18;30.80;60.60
4615;DHT22;2320;51.362;6.946;2023-06-10T14:53:46;30.80;59.90
4615;DHT22;2320;51.362;6.946;2023-06-10T14:56:11;30.80;60.70
4615;DHT22;2320;51.362;6.946;2023-06-10T14:58:37;30.90;60.80
4615;DHT22;2320;51.362;6.946;2023-06-10T15:01:03;31.00;60.80
4615;DHT22;2320;51.362;6.946;2023-06-10T15:03:29;31.30;60.60
4615;DHT22;2320;51.362;6.946;2023-06-10T15:05:54;31.30;60.80
4615;DHT22;2320;51.362;6.946;2023-06-10T15:08:20;31.30;61.00
4615;DHT22;2320;51.362;6.946;2023-06-10T15:10:45;31.20;59.40
4615;DHT22;2320;51.362;6.946;2023-06-10T15:13:13;31.10;59.10
4615;DHT22;2320;51.362;6.946;2023-06-10T15:15:39;31.20;59.30
4615;DHT22;2320;51.362;6.946;2023-06-10T15:18:04;31.00;58.70
4615;DHT22;2320;51.362;6.946;2023-06-10T15:20:30;30.80;59.50
4615;DHT22;2320;51.362;6.946;2023-06-10T15:22:55;30.70;59.50
4615;DHT22;2320;51.362;6.946;2023-06-10T15:25:21;30.60;60.00
4615;DHT22;2320;51.362;6.946;2023-06-10T15:27:46;30.40;59.20
4615;DHT22;2320;51.362;6.946;2023-06-10T15:30:12;30.40;60.00
4615;DHT22;2320;51.362;6.946;2023-06-10T15:32:37;30.40;61.60
4615;DHT22;2320;51.362;6.946;2023-06-10T15:35:03;30.50;60.40
4615;DHT22;2320;51.362;6.946;2023-06-10T15:37:28;30.40;60.70
4615;DHT22;2320;51.362;6.946;2023-06-10T15:39:54;30.60;60.40
4615;DHT22;2320;51.362;6.946;2023-06-10T15:42:19;30.60;59.80
4615;DHT22;2320;51.362;6.946;2023-06-10T15:44:45;30.60;60.10
4615;DHT22;2320;51.362;6.946;2023-06-10T15:47:10;30.70;60.50
4615;DHT22;2320;51.362;6.946;2023-06-10T15:49:36;30.60;59.70
4615;DHT22;2320;51.362;6.946;2023-06-10T15:52:02;30.50;59.40
4615;DHT22;2320;51.362;6.946;2023-06-10T15:54:27;30.40;59.70
4615;DHT22;2320;51.362;6.946;2023-06-10T15:56:53;30.50;60.40
4615;DHT22;2320;51.362;6.946;2023-06-10T15:59:18;30.50;59.90
4615;DHT22;2320;51.362;6.946;2023-06-10T16:01:44;30.70;60.20
4615;DHT22;2320;51.362;6.946;2023-06-10T16:04:09;30.60;59.70
4615;DHT22;2320;51.362;6.946;2023-06-10T16:06:34;30.60;60.50
4615;DHT22;2320;51.362;6.946;2023-06-10T16:09:01;30.70;60.80
4615;DHT22;2320;51.362;6.946;2023-06-10T16:11:26;30.70;61.50